In Rescue
 
Open Full Screen Window  High Contrast Mode
Wind Gusting 00 knots
06
November 29, 2022 7:54 AM CST
Present Weather: Light Snow
Weather Information
Wind Direction
  330 °
Wind Speed
  06 kt (7 mph)
Wind Gust
  00 kt (0 mph)
Altimeter
29.71 in
Visibility
1 3/4 SM
Temperature
-01° C
30° F
Dewpoint
-03° C
27° F
Humidity
86%
1hr Rain Fall
00.00 in.
24hr Rain Fall
00.00 in.
Sky Condition
VV @ 700 ft
IFR

METAR KROS 291354Z AUTO 33006KT 1 3/4SM -SN VV007 M01/M03 A2971 RMK AO2 T10081027

FAA Disclaimer: The data displayed is for advisory purposes only and is not to be used for flight planning or operations.